Terminal Aerodrome Forecast
Issued by NWS

Home | Current Version | Previous Version | Graphics & Text | Print | Product List | Glossary On
Versions: 1 2 3 4 5 6 7 8 9 10 11 12 13 14 15
000
FTUS43 KMPX 251120
TAFRWF
TAF
KRWF 251120Z 2512/2612 05009KT P6SM OVC012
     FM251500 07012G18KT P6SM OVC015
     FM260600 08007KT 4SM BR OVC007=

USA.gov is the U.S. government's official web portal to all federal, state and local government web resources and services.